Time;durP1;ratioP1;P1;durP2;ratioP2;P2;SDS_P1;SDS_P2;PMS_P1;PMS_P2;Temp;Humidity;BMP_temperature;BMP_pressure;BME280_temperature;BME280_humidity;BME280_pressure;Samples;Min_cycle;Max_cycle;Signal;HPM_P1;HPM_P2
2023/04/17 00:01:11;;;;;;;69.57;43.80;;;;;;;;;;5067199;28;20120;-80
2023/04/17 00:03:37;;;;;;;71.80;44.50;;;;;;;;;;5066288;28;20052;-79
2023/04/17 00:06:04;;;;;;;66.82;43.75;;;;;;;;;;5063558;28;20045;-81
2023/04/17 00:08:30;;;;;;;69.18;42.22;;;;;;;;;;5060782;28;20136;-80
2023/04/17 00:10:56;;;;;;;64.30;42.28;;;;;;;;;;5062243;28;20052;-79
2023/04/17 00:13:22;;;;;;;70.22;43.03;;;;;;;;;;5062723;28;20048;-79
2023/04/17 00:15:48;;;;;;;64.00;43.40;;;;;;;;;;5063382;28;20036;-80
2023/04/17 00:18:14;;;;;;;63.92;42.83;;;;;;;;;;5062878;28;20076;-80
2023/04/17 00:20:40;;;;;;;66.00;43.33;;;;;;;;;;5047245;28;20439;-79
2023/04/17 00:23:06;;;;;;;62.47;41.20;;;;;;;;;;5056499;28;20053;-79
2023/04/17 00:25:32;;;;;;;63.60;41.70;;;;;;;;;;5058077;28;20064;-79
2023/04/17 00:27:58;;;;;;;68.60;42.47;;;;;;;;;;5063401;28;20041;-81
2023/04/17 00:30:24;;;;;;;66.57;42.38;;;;;;;;;;5063728;28;20063;-79
2023/04/17 00:32:50;;;;;;;67.18;42.53;;;;;;;;;;5061272;28;20112;-79
2023/04/17 00:35:17;;;;;;;67.15;42.28;;;;;;;;;;5053273;28;20067;-80
2023/04/17 00:37:43;;;;;;;62.10;39.28;;;;;;;;;;5061867;28;20052;-79
2023/04/17 00:40:09;;;;;;;67.53;41.80;;;;;;;;;;5053980;28;20041;-79
2023/04/17 00:42:35;;;;;;;63.72;41.60;;;;;;;;;;5060945;28;20040;-79
2023/04/17 00:45:03;;;;;;;65.30;41.75;;;;;;;;;;5060289;28;20056;-79
2023/04/17 00:47:29;;;;;;;61.83;39.13;;;;;;;;;;5060413;28;20044;-79
2023/04/17 00:49:55;;;;;;;63.10;41.35;;;;;;;;;;5063808;28;20044;-79
2023/04/17 00:52:27;;;;;;;61.38;40.55;;;;;;;;;;5063881;28;20052;-79
2023/04/17 00:54:54;;;;;;;61.35;40.92;;;;;;;;;;5066383;28;20048;-79
2023/04/17 00:57:20;;;;;;;60.40;40.53;;;;;;;;;;5071357;28;20067;-80
2023/04/17 00:59:47;;;;;;;67.75;42.92;;;;;;;;;;5074115;28;20048;-79
2023/04/17 01:02:13;;;;;;;63.05;40.10;;;;;;;;;;5054063;28;20044;-79
2023/04/17 01:04:39;;;;;;;67.25;41.13;;;;;;;;;;5068425;28;20072;-80
2023/04/17 01:07:06;;;;;;;70.82;41.20;;;;;;;;;;5067952;28;20445;-81
2023/04/17 01:09:32;;;;;;;66.97;41.33;;;;;;;;;;5066677;28;20065;-81
2023/04/17 01:12:16;;;;;;;63.17;40.85;;;;;;;;;;5067034;28;20047;-80
2023/04/17 01:14:42;;;;;;;60.58;39.40;;;;;;;;;;5066469;28;20052;-80
2023/04/17 01:17:09;;;;;;;66.32;40.35;;;;;;;;;;5070469;28;20037;-79
2023/04/17 01:19:35;;;;;;;67.65;41.33;;;;;;;;;;5073985;28;20079;-80
2023/04/17 01:22:01;;;;;;;63.03;40.30;;;;;;;;;;5049760;28;20119;-79
2023/04/17 01:24:27;;;;;;;62.88;39.85;;;;;;;;;;5067020;28;20052;-79
2023/04/17 01:26:53;;;;;;;63.33;40.67;;;;;;;;;;5063719;28;20091;-80
2023/04/17 01:29:19;;;;;;;65.10;40.38;;;;;;;;;;5066807;28;20198;-80
2023/04/17 01:31:45;;;;;;;70.95;41.90;;;;;;;;;;5066360;28;20060;-80
2023/04/17 01:34:11;;;;;;;64.78;41.70;;;;;;;;;;5068606;28;20064;-80
2023/04/17 01:36:37;;;;;;;61.40;39.60;;;;;;;;;;5067635;28;20041;-81
2023/04/17 01:39:03;;;;;;;58.30;39.10;;;;;;;;;;5062999;28;20064;-80
2023/04/17 01:41:29;;;;;;;59.35;38.30;;;;;;;;;;5064594;28;20067;-80
2023/04/17 01:43:55;;;;;;;62.60;39.13;;;;;;;;;;5063240;28;20053;-80
2023/04/17 01:46:21;;;;;;;67.15;40.63;;;;;;;;;;5063500;28;20037;-80
2023/04/17 01:48:47;;;;;;;54.85;36.65;;;;;;;;;;5069121;28;20044;-81
2023/04/17 01:51:13;;;;;;;61.30;37.88;;;;;;;;;;5067022;28;20105;-80
2023/04/17 01:53:40;;;;;;;61.78;38.53;;;;;;;;;;5067253;28;20045;-81
2023/04/17 01:56:06;;;;;;;55.95;37.03;;;;;;;;;;5067356;28;20049;-80
2023/04/17 01:58:32;;;;;;;57.80;37.47;;;;;;;;;;5068479;28;20033;-80
2023/04/17 02:00:59;;;;;;;56.30;36.40;;;;;;;;;;5068241;28;20045;-81
2023/04/17 02:03:25;;;;;;;56.95;37.05;;;;;;;;;;5067068;28;20037;-81
2023/04/17 02:05:54;;;;;;;65.53;38.20;;;;;;;;;;5067305;28;20105;-81
2023/04/17 02:08:20;;;;;;;60.28;39.47;;;;;;;;;;5063805;28;20053;-80
2023/04/17 02:10:46;;;;;;;62.55;39.55;;;;;;;;;;5063531;28;20104;-81
2023/04/17 02:13:12;;;;;;;65.82;39.65;;;;;;;;;;5066780;28;20048;-80
2023/04/17 02:15:38;;;;;;;64.22;39.33;;;;;;;;;;5068128;28;20045;-80
2023/04/17 02:18:04;;;;;;;59.28;38.17;;;;;;;;;;5067151;28;20041;-81
2023/04/17 02:20:31;;;;;;;61.25;38.30;;;;;;;;;;5065792;28;20049;-80
2023/04/17 02:22:59;;;;;;;57.75;37.63;;;;;;;;;;5066787;28;20569;-79
2023/04/17 02:25:25;;;;;;;57.40;37.17;;;;;;;;;;5067046;28;20128;-81
2023/04/17 02:27:51;;;;;;;58.97;37.17;;;;;;;;;;5067972;28;20098;-79
2023/04/17 02:30:17;;;;;;;53.17;35.72;;;;;;;;;;5069191;28;20048;-80
2023/04/17 02:32:44;;;;;;;56.50;34.78;;;;;;;;;;5068878;28;20049;-79
2023/04/17 02:35:10;;;;;;;64.72;37.60;;;;;;;;;;5065770;28;20051;-80
2023/04/17 02:37:36;;;;;;;59.40;38.13;;;;;;;;;;5064700;28;20045;-80
2023/04/17 02:40:05;;;;;;;64.60;39.03;;;;;;;;;;5068514;28;20048;-80
2023/04/17 02:42:31;;;;;;;71.53;38.90;;;;;;;;;;5064850;28;20033;-80
2023/04/17 02:44:58;;;;;;;67.60;39.08;;;;;;;;;;5057426;28;20067;-80
2023/04/17 02:47:24;;;;;;;79.72;41.90;;;;;;;;;;5066608;28;20037;-80
2023/04/17 02:49:50;;;;;;;83.30;42.13;;;;;;;;;;5066308;28;20037;-80
2023/04/17 02:52:16;;;;;;;92.60;45.08;;;;;;;;;;5066416;28;20080;-81
2023/04/17 02:54:42;;;;;;;95.45;44.42;;;;;;;;;;5066246;28;20044;-80
2023/04/17 02:57:08;;;;;;;76.93;42.97;;;;;;;;;;5065499;28;20059;-80
2023/04/17 02:59:34;;;;;;;87.32;45.45;;;;;;;;;;5067275;28;20041;-80
2023/04/17 03:02:02;;;;;;;94.03;44.42;;;;;;;;;;5068514;28;20045;-79
2023/04/17 03:04:28;;;;;;;86.00;44.88;;;;;;;;;;5068156;28;20045;-80
2023/04/17 03:06:54;;;;;;;104.05;46.60;;;;;;;;;;5068767;28;20129;-79
2023/04/17 03:09:21;;;;;;;109.13;49.55;;;;;;;;;;5071341;28;20057;-79
2023/04/17 03:11:50;;;;;;;105.80;47.30;;;;;;;;;;5073410;28;20072;-79
2023/04/17 03:14:16;;;;;;;98.72;46.08;;;;;;;;;;5069962;28;20041;-79
2023/04/17 03:16:42;;;;;;;102.13;46.40;;;;;;;;;;5066349;28;20068;-81
2023/04/17 03:19:08;;;;;;;114.10;49.40;;;;;;;;;;5065587;28;20037;-80
2023/04/17 03:21:34;;;;;;;99.40;48.05;;;;;;;;;;5064513;28;20533;-80
2023/04/17 03:24:00;;;;;;;99.85;47.35;;;;;;;;;;5064474;28;20067;-79
2023/04/17 03:26:26;;;;;;;93.80;46.83;;;;;;;;;;5063895;28;20041;-80
2023/04/17 03:28:52;;;;;;;96.18;45.72;;;;;;;;;;5063161;28;20044;-81
2023/04/17 03:31:20;;;;;;;118.65;48.72;;;;;;;;;;5064124;28;20128;-79
2023/04/17 03:33:46;;;;;;;100.43;47.42;;;;;;;;;;5065794;28;20049;-80
2023/04/17 03:36:12;;;;;;;100.70;46.45;;;;;;;;;;5063276;28;20076;-79
2023/04/17 03:38:38;;;;;;;109.65;46.83;;;;;;;;;;5062159;28;20048;-79
2023/04/17 03:41:04;;;;;;;92.47;46.53;;;;;;;;;;5060002;28;20045;-79
2023/04/17 03:43:30;;;;;;;99.93;47.35;;;;;;;;;;5048807;28;20100;-79
2023/04/17 03:45:56;;;;;;;106.60;48.92;;;;;;;;;;5064093;28;20083;-79
2023/04/17 03:48:22;;;;;;;97.70;45.58;;;;;;;;;;5046978;28;20147;-80
2023/04/17 03:50:49;;;;;;;97.45;47.13;;;;;;;;;;5067508;28;20037;-80
2023/04/17 03:53:15;;;;;;;103.57;47.47;;;;;;;;;;5063962;28;20045;-80
2023/04/17 03:55:41;;;;;;;91.43;46.20;;;;;;;;;;5063891;28;20055;-79
2023/04/17 03:58:07;;;;;;;92.72;46.40;;;;;;;;;;5062339;28;20060;-79
2023/04/17 04:00:33;;;;;;;93.95;46.58;;;;;;;;;;5060414;28;20475;-79
2023/04/17 04:02:59;;;;;;;90.65;46.67;;;;;;;;;;5064894;28;20060;-79
2023/04/17 04:05:25;;;;;;;89.57;46.10;;;;;;;;;;5064054;28;20132;-79
2023/04/17 04:07:51;;;;;;;107.28;48.63;;;;;;;;;;5064387;28;20550;-79
2023/04/17 04:10:17;;;;;;;107.20;47.83;;;;;;;;;;5067816;28;20177;-80
2023/04/17 04:12:43;;;;;;;108.95;48.60;;;;;;;;;;5062738;28;20049;-80
2023/04/17 04:15:09;;;;;;;115.88;49.05;;;;;;;;;;5063866;28;20048;-81
2023/04/17 04:17:35;;;;;;;95.03;47.20;;;;;;;;;;5050366;28;20037;-80
2023/04/17 04:20:02;;;;;;;109.07;48.80;;;;;;;;;;5057207;28;20125;-80
2023/04/17 04:22:28;;;;;;;101.93;49.70;;;;;;;;;;5061893;28;20048;-80
2023/04/17 04:24:54;;;;;;;108.45;50.45;;;;;;;;;;5064482;28;20051;-80
2023/04/17 04:27:21;;;;;;;103.32;48.95;;;;;;;;;;5063707;28;20060;-80
2023/04/17 04:29:48;;;;;;;104.95;48.55;;;;;;;;;;5064665;28;20045;-80
2023/04/17 04:32:15;;;;;;;99.60;47.28;;;;;;;;;;5059662;28;20045;-79
2023/04/17 04:34:43;;;;;;;116.65;49.17;;;;;;;;;;5063246;28;20037;-80
2023/04/17 04:37:12;;;;;;;132.57;49.15;;;;;;;;;;5061462;28;20048;-80
2023/04/17 04:39:38;;;;;;;113.40;48.83;;;;;;;;;;5060383;28;20092;-80
2023/04/17 04:42:05;;;;;;;130.23;50.90;;;;;;;;;;5064037;28;20041;-80
2023/04/17 04:44:31;;;;;;;108.20;48.60;;;;;;;;;;5060172;28;20044;-79
2023/04/17 04:46:57;;;;;;;108.38;48.80;;;;;;;;;;5061930;28;20092;-80
2023/04/17 04:49:23;;;;;;;119.22;51.42;;;;;;;;;;5050359;28;20045;-80
2023/04/17 04:51:49;;;;;;;114.18;51.00;;;;;;;;;;5044676;28;20459;-80
2023/04/17 04:54:15;;;;;;;113.97;49.72;;;;;;;;;;5063197;28;20053;-79
2023/04/17 04:56:43;;;;;;;114.45;50.38;;;;;;;;;;5061366;28;20037;-80
2023/04/17 04:59:10;;;;;;;110.20;48.38;;;;;;;;;;5063363;28;20083;-80
2023/04/17 05:01:38;;;;;;;114.80;49.15;;;;;;;;;;5062270;28;20064;-81
2023/04/17 05:04:04;;;;;;;102.13;46.88;;;;;;;;;;5062980;28;20514;-80
2023/04/17 05:06:30;;;;;;;119.15;48.33;;;;;;;;;;5061728;28;20049;-80
2023/04/17 05:08:56;;;;;;;119.28;49.28;;;;;;;;;;5062274;28;20057;-80
2023/04/17 05:11:23;;;;;;;135.52;50.28;;;;;;;;;;5061409;28;20041;-80
2023/04/17 05:13:49;;;;;;;124.07;47.75;;;;;;;;;;5062278;28;20084;-80
2023/04/17 05:16:15;;;;;;;167.20;50.80;;;;;;;;;;5062425;28;20045;-79
2023/04/17 05:18:42;;;;;;;140.60;49.72;;;;;;;;;;5062154;28;20129;-79
2023/04/17 05:21:08;;;;;;;119.35;48.58;;;;;;;;;;5066922;28;20069;-80
2023/04/17 05:23:34;;;;;;;140.70;51.42;;;;;;;;;;5068450;28;20059;-80
2023/04/17 05:26:00;;;;;;;111.00;48.55;;;;;;;;;;5062357;28;20087;-82
2023/04/17 05:28:28;;;;;;;105.15;47.13;;;;;;;;;;5053479;28;20391;-80
2023/04/17 05:30:54;;;;;;;98.85;43.05;;;;;;;;;;5052901;28;20802;-80
2023/04/17 05:33:20;;;;;;;91.63;44.83;;;;;;;;;;5049841;28;20041;-79
2023/04/17 05:35:46;;;;;;;103.50;45.58;;;;;;;;;;5058296;28;20048;-79
2023/04/17 05:38:12;;;;;;;96.88;44.55;;;;;;;;;;5059334;28;20171;-79
2023/04/17 05:40:38;;;;;;;107.68;46.17;;;;;;;;;;5060115;28;20041;-79
2023/04/17 05:43:07;;;;;;;90.43;44.97;;;;;;;;;;5059970;28;20094;-79
2023/04/17 05:45:33;;;;;;;105.65;45.28;;;;;;;;;;5059537;28;20053;-78
2023/04/17 05:47:59;;;;;;;90.72;44.35;;;;;;;;;;5061747;28;20041;-80
2023/04/17 05:50:25;;;;;;;135.20;49.53;;;;;;;;;;5063654;28;20057;-80
2023/04/17 05:52:51;;;;;;;118.75;49.33;;;;;;;;;;5063556;28;20067;-80
2023/04/17 05:55:18;;;;;;;107.97;47.63;;;;;;;;;;5060808;28;20647;-80
2023/04/17 05:57:45;;;;;;;109.20;48.25;;;;;;;;;;5061857;28;20411;-80
2023/04/17 06:00:11;;;;;;;121.25;49.97;;;;;;;;;;5063508;28;20182;-79
2023/04/17 06:02:39;;;;;;;120.68;49.22;;;;;;;;;;5065551;28;20040;-79
2023/04/17 06:05:05;;;;;;;121.68;48.42;;;;;;;;;;5064323;28;20130;-79
2023/04/17 06:07:37;;;;;;;114.30;48.05;;;;;;;;;;5065363;28;20063;-79
2023/04/17 06:10:03;;;;;;;111.38;48.83;;;;;;;;;;5068827;28;20057;-79
2023/04/17 06:12:29;;;;;;;108.28;47.40;;;;;;;;;;5059948;28;20375;-80
2023/04/17 06:14:55;;;;;;;119.85;48.15;;;;;;;;;;5066758;28;20060;-79
2023/04/17 06:17:22;;;;;;;119.40;48.80;;;;;;;;;;5065468;28;20045;-79
2023/04/17 06:19:48;;;;;;;129.10;49.75;;;;;;;;;;5064419;28;20051;-79
2023/04/17 06:22:14;;;;;;;114.47;48.58;;;;;;;;;;5063707;28;20127;-79
2023/04/17 06:24:40;;;;;;;116.18;50.20;;;;;;;;;;5064418;28;20052;-79
2023/04/17 06:27:06;;;;;;;103.53;49.72;;;;;;;;;;5063797;28;20050;-80
2023/04/17 06:29:32;;;;;;;100.05;49.67;;;;;;;;;;5065937;28;20062;-79
2023/04/17 06:31:58;;;;;;;109.32;49.80;;;;;;;;;;5066323;28;20045;-80
2023/04/17 06:34:24;;;;;;;97.03;47.40;;;;;;;;;;5064473;28;20040;-79
2023/04/17 06:36:50;;;;;;;107.65;48.70;;;;;;;;;;5063141;28;20041;-79
2023/04/17 06:39:17;;;;;;;98.25;47.55;;;;;;;;;;5069348;28;20039;-80
2023/04/17 06:41:43;;;;;;;96.47;47.67;;;;;;;;;;5076367;28;20045;-80
2023/04/17 06:44:09;;;;;;;109.88;48.65;;;;;;;;;;5066490;28;20081;-79
2023/04/17 06:46:35;;;;;;;93.90;47.40;;;;;;;;;;5048544;28;20045;-80
2023/04/17 06:49:01;;;;;;;98.97;48.38;;;;;;;;;;5064081;28;20049;-79
2023/04/17 06:51:28;;;;;;;96.57;48.17;;;;;;;;;;5063057;28;20043;-80
2023/04/17 06:53:54;;;;;;;96.03;48.60;;;;;;;;;;5067070;28;20052;-79
2023/04/17 06:56:20;;;;;;;94.00;48.35;;;;;;;;;;5065890;28;20095;-80
2023/04/17 06:58:46;;;;;;;88.88;47.67;;;;;;;;;;5064021;28;20461;-80
2023/04/17 07:01:13;;;;;;;90.50;48.85;;;;;;;;;;5063075;28;20069;-79
2023/04/17 07:03:39;;;;;;;95.00;50.38;;;;;;;;;;5066121;28;20060;-81
2023/04/17 07:06:06;;;;;;;86.35;48.53;;;;;;;;;;5064784;28;20047;-80
2023/04/17 07:08:32;;;;;;;89.88;48.38;;;;;;;;;;5065567;28;20088;-79
2023/04/17 07:10:58;;;;;;;86.47;49.60;;;;;;;;;;5066950;28;20056;-79
2023/04/17 07:13:25;;;;;;;83.43;49.05;;;;;;;;;;5051595;28;20049;-80
2023/04/17 07:15:55;;;;;;;87.40;49.35;;;;;;;;;;5067629;28;20045;-78
2023/04/17 07:18:21;;;;;;;78.20;48.65;;;;;;;;;;5063860;28;20518;-78
2023/04/17 07:20:48;;;;;;;75.43;48.25;;;;;;;;;;5060935;28;20048;-79
2023/04/17 07:23:14;;;;;;;71.25;48.88;;;;;;;;;;5068013;28;20098;-79
2023/04/17 07:25:40;;;;;;;73.47;49.38;;;;;;;;;;5063251;28;20048;-79
2023/04/17 07:28:07;;;;;;;76.40;49.28;;;;;;;;;;5063487;28;20040;-80
2023/04/17 07:30:33;;;;;;;67.85;48.00;;;;;;;;;;5068257;28;20064;-81
2023/04/17 07:32:59;;;;;;;67.78;45.28;;;;;;;;;;5072756;28;20037;-80
2023/04/17 07:35:26;;;;;;;69.03;48.63;;;;;;;;;;5068951;28;20044;-78
2023/04/17 07:37:52;;;;;;;67.95;47.05;;;;;;;;;;5075878;28;20041;-78
2023/04/17 07:40:18;;;;;;;66.68;47.45;;;;;;;;;;5066611;28;20041;-80
2023/04/17 07:42:44;;;;;;;61.50;45.30;;;;;;;;;;5058998;28;20041;-78
2023/04/17 07:45:11;;;;;;;61.15;45.78;;;;;;;;;;5063318;28;20045;-79
2023/04/17 07:47:37;;;;;;;57.35;43.50;;;;;;;;;;5058966;28;20047;-79
2023/04/17 07:50:03;;;;;;;58.15;44.92;;;;;;;;;;5061268;28;20037;-80
2023/04/17 07:52:29;;;;;;;60.38;44.42;;;;;;;;;;5062213;28;20051;-80
2023/04/17 07:54:56;;;;;;;57.92;42.65;;;;;;;;;;5066083;28;20044;-80
2023/04/17 07:57:25;;;;;;;52.50;39.63;;;;;;;;;;5067181;28;20049;-80
2023/04/17 07:59:52;;;;;;;54.00;41.70;;;;;;;;;;5065578;28;20041;-79
2023/04/17 08:02:18;;;;;;;51.75;41.25;;;;;;;;;;5065269;28;20057;-80
2023/04/17 08:04:45;;;;;;;51.63;40.33;;;;;;;;;;5064496;28;20106;-79
2023/04/17 08:07:11;;;;;;;51.88;39.33;;;;;;;;;;5063371;28;20075;-79
2023/04/17 08:09:37;;;;;;;49.40;39.65;;;;;;;;;;5065154;28;20064;-80
2023/04/17 08:12:04;;;;;;;49.40;39.65;;;;;;;;;;5064256;28;20067;-80
2023/04/17 08:14:30;;;;;;;46.78;37.33;;;;;;;;;;5064200;28;20041;-79
2023/04/17 08:16:57;;;;;;;47.45;38.05;;;;;;;;;;5061747;28;20041;-79
2023/04/17 08:19:23;;;;;;;46.95;38.22;;;;;;;;;;5056213;28;20140;-79
2023/04/17 08:21:49;;;;;;;47.63;38.25;;;;;;;;;;5060175;28;20041;-79
2023/04/17 08:24:16;;;;;;;42.58;35.60;;;;;;;;;;5059876;28;20060;-80
2023/04/17 08:26:42;;;;;;;40.85;34.60;;;;;;;;;;5058029;28;20049;-79
2023/04/17 08:29:08;;;;;;;39.55;33.75;;;;;;;;;;5056968;28;20441;-79
2023/04/17 08:31:35;;;;;;;40.65;33.40;;;;;;;;;;5057946;28;20434;-79
2023/04/17 08:34:02;;;;;;;40.47;32.70;;;;;;;;;;5057963;28;20049;-79
2023/04/17 08:36:28;;;;;;;36.70;32.58;;;;;;;;;;5058918;28;20531;-78
2023/04/17 08:38:55;;;;;;;37.72;32.65;;;;;;;;;;5051689;28;20037;-79
2023/04/17 08:41:23;;;;;;;36.42;30.95;;;;;;;;;;5056278;28;20055;-79
2023/04/17 08:43:49;;;;;;;39.15;32.13;;;;;;;;;;5057210;28;20084;-79
2023/04/17 08:46:20;;;;;;;43.22;31.52;;;;;;;;;;5058975;28;20045;-79
2023/04/17 08:48:46;;;;;;;38.72;32.67;;;;;;;;;;5058151;28;20515;-78
2023/04/17 08:51:14;;;;;;;34.20;29.33;;;;;;;;;;5059413;28;20048;-79
2023/04/17 08:53:40;;;;;;;33.08;28.23;;;;;;;;;;5059188;28;20049;-80
2023/04/17 08:56:07;;;;;;;30.60;27.38;;;;;;;;;;5064318;28;20086;-79
2023/04/17 08:58:33;;;;;;;30.50;26.98;;;;;;;;;;5061266;28;20052;-78
2023/04/17 09:01:10;;;;;;;33.55;27.13;;;;;;;;;;5060423;28;20041;-79
2023/04/17 09:03:43;;;;;;;31.10;26.05;;;;;;;;;;5062619;28;20514;-79
2023/04/17 09:06:10;;;;;;;30.27;25.83;;;;;;;;;;5063700;28;20053;-79
2023/04/17 09:08:36;;;;;;;29.33;24.83;;;;;;;;;;5061340;28;20057;-79
2023/04/17 09:11:02;;;;;;;30.38;26.60;;;;;;;;;;5056642;28;20049;-79
2023/04/17 09:13:29;;;;;;;31.98;26.30;;;;;;;;;;5063417;28;20453;-79
2023/04/17 09:16:04;;;;;;;30.45;24.33;;;;;;;;;;5069690;28;20044;-78
2023/04/17 09:18:31;;;;;;;27.13;22.55;;;;;;;;;;5064098;28;20036;-80
2023/04/17 09:20:58;;;;;;;29.48;22.02;;;;;;;;;;5062686;28;20045;-79
2023/04/17 09:23:25;;;;;;;29.88;22.02;;;;;;;;;;5061987;28;20047;-79
2023/04/17 09:26:07;;;;;;;36.67;22.42;;;;;;;;;;5066435;28;20049;-79
2023/04/17 09:28:34;;;;;;;24.85;21.70;;;;;;;;;;5065609;28;20048;-79
2023/04/17 09:31:04;;;;;;;23.58;20.77;;;;;;;;;;5064978;28;20052;-79
2023/04/17 09:33:30;;;;;;;27.52;20.27;;;;;;;;;;5065857;28;20037;-79
2023/04/17 09:36:16;;;;;;;23.52;20.70;;;;;;;;;;5066463;28;20091;-79
2023/04/17 09:38:43;;;;;;;25.15;19.45;;;;;;;;;;5063258;28;20048;-79
2023/04/17 09:41:28;;;;;;;26.25;20.38;;;;;;;;;;5064982;28;20045;-79
2023/04/17 09:43:55;;;;;;;23.15;17.67;;;;;;;;;;5068316;28;20124;-79
2023/04/17 09:46:32;;;;;;;22.55;18.95;;;;;;;;;;5074002;28;20061;-79
2023/04/17 09:49:24;;;;;;;24.70;18.35;;;;;;;;;;5076049;28;20037;-79
2023/04/17 09:51:51;;;;;;;23.67;19.33;;;;;;;;;;5076859;28;20132;-79
2023/04/17 09:54:19;;;;;;;22.92;18.95;;;;;;;;;;5061850;28;20049;-80
2023/04/17 09:56:48;;;;;;;25.08;19.17;;;;;;;;;;5065879;28;20068;-79
2023/04/17 09:59:15;;;;;;;22.38;18.88;;;;;;;;;;5063468;28;20041;-81
2023/04/17 10:01:41;;;;;;;24.30;19.30;;;;;;;;;;5066417;28;20055;-80
2023/04/17 10:04:07;;;;;;;19.83;16.55;;;;;;;;;;5067087;28;20064;-79
2023/04/17 10:06:34;;;;;;;20.10;15.02;;;;;;;;;;5074106;28;20043;-80
2023/04/17 10:09:03;;;;;;;21.15;16.50;;;;;;;;;;5054030;28;20057;-80
2023/04/17 10:11:34;;;;;;;23.25;18.38;;;;;;;;;;5063694;28;20049;-79
2023/04/17 10:14:04;;;;;;;23.50;17.92;;;;;;;;;;5074469;28;20441;-78
2023/04/17 10:16:37;;;;;;;21.77;17.20;;;;;;;;;;5066226;28;20037;-80
2023/04/17 10:19:22;;;;;;;19.38;14.65;;;;;;;;;;5045669;28;20102;-79
2023/04/17 10:22:08;;;;;;;17.73;15.38;;;;;;;;;;5064346;28;20105;-79
2023/04/17 10:24:34;;;;;;;19.20;14.02;;;;;;;;;;5069054;28;20097;-79
2023/04/17 10:27:01;;;;;;;18.40;16.08;;;;;;;;;;5062691;28;20033;-79
2023/04/17 10:30:00;;;;;;;19.33;16.27;;;;;;;;;;5046289;28;20105;-80
2023/04/17 10:32:27;;;;;;;18.42;13.57;;;;;;;;;;5050662;28;20550;-79
2023/04/17 10:34:55;;;;;;;17.60;13.70;;;;;;;;;;5066680;28;20046;-79
2023/04/17 10:37:43;;;;;;;18.98;15.25;;;;;;;;;;5067195;28;20048;-79
2023/04/17 10:40:10;;;;;;;18.00;14.52;;;;;;;;;;5070486;28;20037;-79
2023/04/17 10:42:36;;;;;;;17.02;14.50;;;;;;;;;;5065692;28;20184;-79
2023/04/17 10:45:04;;;;;;;20.05;13.93;;;;;;;;;;5062872;28;20045;-79
2023/04/17 10:47:34;;;;;;;18.52;14.98;;;;;;;;;;5069060;28;20057;-79
2023/04/17 10:50:04;;;;;;;18.02;14.60;;;;;;;;;;5050827;28;20050;-79
2023/04/17 10:52:30;;;;;;;16.33;14.50;;;;;;;;;;5061909;28;20485;-80
2023/04/17 10:55:02;;;;;;;18.30;15.60;;;;;;;;;;5065380;28;20094;-79
2023/04/17 10:57:51;;;;;;;18.40;15.32;;;;;;;;;;5057665;28;20056;-79
2023/04/17 11:00:18;;;;;;;20.60;15.55;;;;;;;;;;5060245;28;20028;-79
2023/04/17 11:02:44;;;;;;;23.88;15.20;;;;;;;;;;5065190;28;20072;-79
2023/04/17 11:05:11;;;;;;;18.83;14.68;;;;;;;;;;5058476;28;20116;-79
2023/04/17 11:07:37;;;;;;;19.25;14.45;;;;;;;;;;5061378;28;20052;-79
2023/04/17 11:10:06;;;;;;;21.38;15.13;;;;;;;;;;5067117;28;20507;-79
2023/04/17 11:12:33;;;;;;;23.45;16.17;;;;;;;;;;5059252;28;20045;-79
2023/04/17 11:15:05;;;;;;;17.83;14.07;;;;;;;;;;5064323;28;20037;-79
2023/04/17 11:17:32;;;;;;;16.05;13.27;;;;;;;;;;5062074;28;20074;-79
2023/04/17 11:19:58;;;;;;;19.08;13.88;;;;;;;;;;5064054;28;20075;-79
2023/04/17 11:22:24;;;;;;;18.65;15.00;;;;;;;;;;5061364;28;20045;-80
2023/04/17 11:24:50;;;;;;;19.42;15.57;;;;;;;;;;5062415;28;20060;-79
2023/04/17 11:27:17;;;;;;;19.67;16.00;;;;;;;;;;5076117;28;20037;-79
2023/04/17 11:29:44;;;;;;;20.17;16.02;;;;;;;;;;5066896;28;20053;-79
2023/04/17 11:32:11;;;;;;;18.42;16.25;;;;;;;;;;5064250;28;20048;-80
2023/04/17 11:34:37;;;;;;;20.30;16.10;;;;;;;;;;5062230;28;20072;-79
2023/04/17 11:37:03;;;;;;;19.40;16.23;;;;;;;;;;5065861;28;20086;-79
2023/04/17 11:39:31;;;;;;;20.55;15.90;;;;;;;;;;5041749;28;20045;-78
2023/04/17 11:41:57;;;;;;;21.95;15.43;;;;;;;;;;5074619;28;20041;-79
2023/04/17 11:44:24;;;;;;;17.52;13.98;;;;;;;;;;5060608;28;20037;-79
2023/04/17 11:46:50;;;;;;;16.90;14.88;;;;;;;;;;5078636;28;20037;-79
2023/04/17 11:49:23;;;;;;;20.00;15.63;;;;;;;;;;5059644;28;20087;-79
2023/04/17 11:51:50;;;;;;;19.63;14.13;;;;;;;;;;5065617;28;20048;-79
2023/04/17 11:54:26;;;;;;;19.63;16.23;;;;;;;;;;5063482;28;20045;-80
2023/04/17 11:57:02;;;;;;;20.05;16.67;;;;;;;;;;5075391;28;20124;-79
2023/04/17 11:59:29;;;;;;;19.80;15.35;;;;;;;;;;5068848;28;20041;-79
2023/04/17 12:01:55;;;;;;;18.42;14.93;;;;;;;;;;5063218;28;20108;-79
2023/04/17 12:04:21;;;;;;;20.35;14.77;;;;;;;;;;5049094;28;20045;-79
2023/04/17 12:06:47;;;;;;;18.88;15.25;;;;;;;;;;5042725;28;20037;-79
2023/04/17 12:09:20;;;;;;;19.67;15.30;;;;;;;;;;5058685;28;20084;-78
2023/04/17 12:11:47;;;;;;;19.05;14.93;;;;;;;;;;5062031;28;20056;-79
2023/04/17 12:14:13;;;;;;;18.92;14.13;;;;;;;;;;5060819;28;20076;-79
2023/04/17 12:16:39;;;;;;;16.15;11.05;;;;;;;;;;5060261;28;20075;-78
2023/04/17 12:19:06;;;;;;;17.98;12.55;;;;;;;;;;5059642;28;20053;-78
2023/04/17 12:21:32;;;;;;;16.83;12.80;;;;;;;;;;5061036;28;20047;-80
2023/04/17 12:23:59;;;;;;;17.92;11.65;;;;;;;;;;5064835;28;20036;-79
2023/04/17 12:26:25;;;;;;;13.45;11.00;;;;;;;;;;5067132;28;20045;-78
2023/04/17 12:28:51;;;;;;;14.95;10.48;;;;;;;;;;5042835;28;20488;-80
2023/04/17 12:31:17;;;;;;;16.02;12.32;;;;;;;;;;5055888;28;20041;-79
2023/04/17 12:33:43;;;;;;;16.80;14.25;;;;;;;;;;5051400;28;20064;-79
2023/04/17 12:36:09;;;;;;;17.73;14.10;;;;;;;;;;5063045;28;20041;-80
2023/04/17 12:38:36;;;;;;;18.00;13.70;;;;;;;;;;5064695;28;20037;-79
2023/04/17 12:41:02;;;;;;;17.27;13.40;;;;;;;;;;5060038;28;20038;-80
2023/04/17 12:43:28;;;;;;;15.80;12.45;;;;;;;;;;5061462;28;20106;-79
2023/04/17 12:45:54;;;;;;;15.88;12.27;;;;;;;;;;5060294;28;20040;-78
2023/04/17 12:48:20;;;;;;;15.13;12.90;;;;;;;;;;5051161;28;20087;-78
2023/04/17 12:50:46;;;;;;;15.88;13.48;;;;;;;;;;5055769;28;20057;-79
2023/04/17 12:53:13;;;;;;;19.30;16.15;;;;;;;;;;5056117;28;20040;-78
2023/04/17 12:55:40;;;;;;;20.02;14.32;;;;;;;;;;5043008;28;20073;-79
2023/04/17 12:58:07;;;;;;;17.98;15.05;;;;;;;;;;5066179;28;20037;-79
2023/04/17 13:00:33;;;;;;;18.33;14.48;;;;;;;;;;5068249;28;20045;-80
2023/04/17 13:03:00;;;;;;;17.25;13.98;;;;;;;;;;5068171;28;20049;-81
2023/04/17 13:05:30;;;;;;;17.83;13.43;;;;;;;;;;5063528;28;20037;-79
2023/04/17 13:07:56;;;;;;;16.48;14.15;;;;;;;;;;5066823;28;20100;-80
2023/04/17 13:10:22;;;;;;;17.40;12.63;;;;;;;;;;5058802;28;20037;-80
2023/04/17 13:12:48;;;;;;;17.75;13.25;;;;;;;;;;5066933;28;20049;-78
2023/04/17 13:15:15;;;;;;;16.13;13.38;;;;;;;;;;5068070;28;20042;-80
2023/04/17 13:17:42;;;;;;;18.08;13.02;;;;;;;;;;5068350;28;20051;-79
2023/04/17 13:20:09;;;;;;;17.00;13.80;;;;;;;;;;5064628;28;20041;-80
2023/04/17 13:22:35;;;;;;;19.75;14.88;;;;;;;;;;5065988;28;20067;-80
2023/04/17 13:25:02;;;;;;;18.35;15.32;;;;;;;;;;5047555;28;20055;-79
2023/04/17 13:27:29;;;;;;;18.77;15.25;;;;;;;;;;5066458;28;20175;-79
2023/04/17 13:29:55;;;;;;;15.63;13.93;;;;;;;;;;5072059;28;20037;-79
2023/04/17 13:32:21;;;;;;;16.80;14.02;;;;;;;;;;5072676;28;20053;-79
2023/04/17 13:34:47;;;;;;;14.90;12.88;;;;;;;;;;5067527;28;20037;-79
2023/04/17 13:37:14;;;;;;;17.20;12.93;;;;;;;;;;5067654;28;20041;-79
2023/04/17 13:39:40;;;;;;;17.05;13.68;;;;;;;;;;5064420;28;20068;-79
2023/04/17 13:42:07;;;;;;;16.05;11.77;;;;;;;;;;5064510;28;20119;-78
2023/04/17 13:44:33;;;;;;;17.65;11.75;;;;;;;;;;5064896;28;20142;-80
2023/04/17 13:46:59;;;;;;;14.57;10.55;;;;;;;;;;5066747;28;20110;-79
2023/04/17 13:49:28;;;;;;;24.60;11.52;;;;;;;;;;5067189;28;20041;-80
2023/04/17 13:51:54;;;;;;;24.27;12.20;;;;;;;;;;5067862;28;20080;-78
2023/04/17 13:54:21;;;;;;;16.48;11.68;;;;;;;;;;5048516;28;20037;-80
2023/04/17 13:56:47;;;;;;;17.65;11.82;;;;;;;;;;5064574;28;20171;-80
2023/04/17 13:59:13;;;;;;;13.43;9.88;;;;;;;;;;5066694;28;20068;-78
2023/04/17 14:01:39;;;;;;;13.27;9.50;;;;;;;;;;5066057;28;20062;-80
2023/04/17 14:04:05;;;;;;;13.35;10.70;;;;;;;;;;5066665;28;20045;-80
2023/04/17 14:06:32;;;;;;;17.90;10.23;;;;;;;;;;5066590;28;20087;-79
2023/04/17 14:08:58;;;;;;;13.52;9.85;;;;;;;;;;5068455;28;20132;-79
2023/04/17 14:11:24;;;;;;;14.48;10.32;;;;;;;;;;5075285;28;20100;-79
2023/04/17 14:13:51;;;;;;;28.35;10.95;;;;;;;;;;5073944;28;20052;-79